Cranwell, United Kingdom

10:03 PM BST on August 27, 2014 (GMT +0100)
Cranwell Air Base | Change Station
CLOSE
Current Station
Airport
Location: Cranwell,
Elevation: 220 ft
Nearby Weather Stations

Elev 220 ft 53.03 °N, 0.50 °W | Updated 13 minutes ago

Mostly Cloudy
Mostly Cloudy
59 °F
Feels Like 59 °F
N
13
Wind Variable Wind from SE

Today
High -- | Low -- °F
--% Chance of Precip.
Yesterday
High -- | Low -- °F
Precip. -- in
6:03 AM 8:02 PM
Waxing Crescent, 5% visible
Pressure 29.89 in
Visibility 6.2 miles
Clouds Scattered Clouds 2600 ft
Scattered Clouds 3500 ft
Mostly Cloudy 5000 ft
Dew Point 50 °F
Humidity 72%
Rainfall 0.00 in
Snow Depth Not available.
UV 0 out of 12
Pollen Not available.
Air Quality Not available.
Flu Activity Not available.
METAR EGYD 272050Z 13011KT 9999 SCT026 SCT035 BKN050 15/10 Q1012 BLU TEMPO SCT024 WHT

More Conditions Fewer Conditions

Pressure 29.89 in
Visibility 6.2 miles
Clouds Scattered Clouds 2600 ft
Scattered Clouds 3500 ft
Mostly Cloudy 5000 ft
Dew Point 50 °F
Humidity 72%
Rainfall 0.00 in
Snow Depth Not available.
UV 0 out of 12
Pollen Not available.
Air Quality Not available.
Flu Activity Not available.
METAR EGYD 272050Z 13011KT 9999 SCT026 SCT035 BKN050 15/10 Q1012 BLU TEMPO SCT024 WHT

More Conditions Fewer Conditions

10-Day Weather Forecast

Almanac

Astronomy

Aug. 27, 2014 Rise Set
Actual Time 6:03 AM BST 8:02 PM BST
Civil Twilight 5:26 AM BST 8:39 PM BST
Nautical Twilight 4:39 AM BST 9:25 PM BST
Astronomical Twilight 3:46 AM BST 10:18 PM BST
Moon 8:05 AM BST 8:23 PM BST
Length of Visible Light 15h 13m
Length of Day
13h 59m
Tomorrow will be 3m 59s shorter.
Waxing Crescent, 5% of the Moon is Illuminated
Today
Waxing Crescent
Sep 2
First Quarter
Sep 8
Full
Sep 15
Last Quarter
Sep 24
New

Today's Extremes

Country Highs Country Lows

Community

WunderPhotos

Upload Photos

1,747,785 photos uploaded!

Nearby

Snow Depth

Not available.

Earthquake Activity

City Distance Mag. Time & Date
No recent earthquake activity has been reported nearby.
Minimum magnitude displayed is 2.5.

Coastal Water Temperatures

Place Temperature
No Stations Reporting

Nearby Weather Stations